Sandspit Airport
CYZP : rendu visible

Aérodrome :











RETROUVEZ-NOUS SUR...

 
LOGIN :

S'inscrire | Disclaimer

   EN    FR    IT 

 









Légende :    VFR   VFR Marginal   IFR   IFR Intensif   IFR Très Intensif
Visi : 
Plafond : 
>= 8 km
>= 3000ft
5 à 8 km
1000 à 3000 ft
1500m à 5 km
500 à 1000 ft
800 à 1500m
200 à 500 ft
< 800m
< 200 ft
Symboles :   Orages  Brouillard  Fortes neiges  Fortes précipitations  Vent > 20 kt






- Altitude de l'aérodrome : 21 ft
- Code IATA : YZP


CYZP - Sandspit

DERNIER METAR :
  • 040743Z AUTO 28009KT 6SM -RA BR FEW120 OVC140 09/08 A3004 RMK SLP175

METARs EXPIRÉS :
  • 040728Z AUTO 28009KT 3SM -RA BR OVC150 09/08 A3004 RMK SLP176
  • 040721Z AUTO 29010KT 2SM -RA BR FEW085 OVC150 09/08 A3004 RMK SLP176
  • 040711Z AUTO 28009KT 1 3/4SM RA BR FEW085 OVC150 09/08 A3005 RMK SLP177
  • 040647Z AUTO 28008KT 4SM -RA BR BKN140 OVC160 09/09 A3005 RMK SLP177
  • 040640Z AUTO 27008KT 6SM -RA BR FEW022 OVC140 09/09 A3005 RMK SLP177
  • 040627Z AUTO 28008KT 5SM -RA BR SCT022 BKN140 OVC160 10/08 A3005 RMK SLP177
  • 040600Z AUTO 32009KT 6SM -RA BR BKN018 OVC150 09/08 A3005 RMK PCPN 5.3MM PAST HR SLP178
  • 040556Z AUTO 32008KT 3SM -RA BR BKN016 BKN085 OVC150 10/08 A3005 RMK SLP178
  • 040539Z AUTO 33008KT 2 1/4SM -RA BR FEW005 SCT015 OVC150 10/08 A3006 RMK SLP180
  • 040530Z AUTO 35006KT 2 1/4SM -RA BR FEW005 SCT017 OVC150 10/09 A3005 RMK SLP178
  • 040513Z AUTO 33004KT 2 1/4SM RA BR SCT019 BKN034 OVC150 10/09 A3005 RMK SLP178
  • 040505Z AUTO 34003KT 2 1/2SM -RA BR SCT021 BKN047 OVC150 10/09 A3005 RMK SLP178

TAF TAF CYZP
Valide du 04 à 07h jusqu'au 04 à 19h UTC


040638Z 0407/0419 32008KT P6SM -RA SCT020 BKN050
TEMPO 0407/0412 2SM SHRA BR SCT006 BKN012 OVC050
FM041200 26008KT P6SM SCT012 BKN140
TEMPO 0412/0419 BKN012 RMK FCST BASED ON AUTO OBS. NXT FCST BY 041300Z
FIR CZVR / Amérique du Nord



MET'MAP, la Météo Aéronautique d'un coup d'oeil ! - Copyright ORBIFLY Décembre 2007 - Disclaimer

ORBIFLY MET'MAP TEAM :

Programmation & Développement : Alexandra Zaïnal
Sur une idée originale de : Baudouin d'Aumeries
Assistance à la programmation : Marc-Olivier Méhu
Soutien technique & logistique : Manuel Goepfert

Contact : metmap@orbifly.com




SOURCES & CREDITS :

   NOAA       Earth
Advisory